Cracovia, Polonia

12:02 AM CEST on august 26, 2016 (GMT +0200)
John Paul II International / Krakow-Balice | | Change Station

Elev 778 ft 50.08 °N, 19.80 °E | Updated 32 minutes ago

Clear
Cer senin
57 °F
Feels Like 57 °F
N
5
Vânt variabil Vânt from NE

astăzi
High -- | Low -- °F
--% Chance of Precip.
Ieri
High -- | Low -- °F
Precip. -- inch
Presiunea 30.24 inch
Vizibilitatea -9999.0 mile
Nori
Punctul de rouă 54 °F
Umiditatea 88%
Precipitaţii 0.00 inch
Adâncimea zăpezii Not available.
5:47 AM 7:36 PM
Ultimul pătrar, 41% visible
METAR EPKK 252130Z 05004KT 040V110 CAVOK 14/12 Q1024
Presiunea 30.24 inch
Vizibilitatea -9999.0 mile
Nori
Punctul de rouă 54 °F
Umiditatea 88%
Precipitaţii 0.00 inch
Adâncimea zăpezii Not available.
5:47 AM 7:36 PM
Ultimul pătrar, 41% visible
METAR EPKK 252130Z 05004KT 040V110 CAVOK 14/12 Q1024

10-Day Weather Forecast

×

Almanac

Astronomie

Aug. 26, 2016 Răsărit Apus
Timpul Actual
Crepusculul Civil
Crepusculul nautic
Răsărit Astronomic
Luna
Durata zilei lumină
Lungimea zilei
Tomorrow will be .
, % of the Moon is Illuminated

Extremele de azi

Country Highs Country Lows

Community

WunderPhotos

Upload Photos

1,934,951 photos uploaded!

WunderBlog® & News

Nearby

Calitatea aerului

  Calitatea aerului Index de calitate a aerului Poluat
Not available.

Adâncimea zapezii

Station Depth Elevation

Earthquake Activity

Oraş Distance Mag. Time & Date
Minimum magnitude displayed is 2.5.

Coastal Water Temperatures

Locul Temperatura

Stations

Nearby Weather Stations

Locaţia staţiei Temp Vânt rece Punctul de rouă Umiditatea Vânt Precip. Elev Actualizare Type